sensor_id;sensor_type;location;lat;lon;timestamp;pressure;altitude;pressure_sealevel;temperature;humidity
42111;BME280;27766;52.174;5.456;2023-03-09T00:00:42;99104.59;;;0.29;100.00
42111;BME280;27766;52.174;5.456;2023-03-09T00:03:09;99101.06;;;0.26;100.00
42111;BME280;27766;52.174;5.456;2023-03-09T00:05:52;99096.88;;;0.26;100.00
42111;BME280;27766;52.174;5.456;2023-03-09T00:08:19;99111.03;;;0.18;100.00
42111;BME280;27766;52.174;5.456;2023-03-09T00:10:47;99115.09;;;0.13;100.00
42111;BME280;27766;52.174;5.456;2023-03-09T00:13:22;99105.00;;;0.16;100.00
42111;BME280;27766;52.174;5.456;2023-03-09T00:15:49;99103.28;;;0.15;100.00
42111;BME280;27766;52.174;5.456;2023-03-09T00:18:20;99112.50;;;0.11;100.00
42111;BME280;27766;52.174;5.456;2023-03-09T00:20:48;99117.63;;;0.13;100.00
42111;BME280;27766;52.174;5.456;2023-03-09T00:23:15;99123.69;;;0.17;100.00
42111;BME280;27766;52.174;5.456;2023-03-09T00:25:45;99109.91;;;0.10;100.00
42111;BME280;27766;52.174;5.456;2023-03-09T00:28:12;99130.28;;;0.10;100.00
42111;BME280;27766;52.174;5.456;2023-03-09T00:30:39;99136.22;;;0.10;100.00
42111;BME280;27766;52.174;5.456;2023-03-09T00:33:06;99141.50;;;0.17;100.00
42111;BME280;27766;52.174;5.456;2023-03-09T00:35:36;99146.66;;;0.18;100.00
42111;BME280;27766;52.174;5.456;2023-03-09T00:38:03;99145.69;;;0.14;100.00
42111;BME280;27766;52.174;5.456;2023-03-09T00:40:30;99129.59;;;0.15;100.00
42111;BME280;27766;52.174;5.456;2023-03-09T00:42:58;99135.75;;;0.22;100.00
42111;BME280;27766;52.174;5.456;2023-03-09T00:45:25;99140.94;;;0.25;100.00
42111;BME280;27766;52.174;5.456;2023-03-09T00:47:52;99153.06;;;0.33;100.00
42111;BME280;27766;52.174;5.456;2023-03-09T00:50:19;99142.94;;;0.36;100.00
42111;BME280;27766;52.174;5.456;2023-03-09T00:52:46;99123.50;;;0.38;100.00
42111;BME280;27766;52.174;5.456;2023-03-09T00:55:13;99129.41;;;0.37;100.00
42111;BME280;27766;52.174;5.456;2023-03-09T00:57:40;99127.63;;;0.34;100.00
42111;BME280;27766;52.174;5.456;2023-03-09T01:00:08;99118.88;;;0.26;100.00
42111;BME280;27766;52.174;5.456;2023-03-09T01:02:35;99133.69;;;0.38;100.00
42111;BME280;27766;52.174;5.456;2023-03-09T01:05:02;99141.31;;;0.38;100.00
42111;BME280;27766;52.174;5.456;2023-03-09T01:07:30;99147.31;;;0.38;100.00
42111;BME280;27766;52.174;5.456;2023-03-09T01:09:59;99157.56;;;0.41;100.00
42111;BME280;27766;52.174;5.456;2023-03-09T01:12:27;99171.16;;;0.42;100.00
42111;BME280;27766;52.174;5.456;2023-03-09T01:14:55;99175.41;;;0.43;100.00
42111;BME280;27766;52.174;5.456;2023-03-09T01:17:23;99177.16;;;0.44;100.00
42111;BME280;27766;52.174;5.456;2023-03-09T01:19:50;99166.09;;;0.42;100.00
42111;BME280;27766;52.174;5.456;2023-03-09T01:22:17;99172.94;;;0.44;100.00
42111;BME280;27766;52.174;5.456;2023-03-09T01:24:44;99168.72;;;0.45;100.00
42111;BME280;27766;52.174;5.456;2023-03-09T01:27:11;99179.00;;;0.48;100.00
42111;BME280;27766;52.174;5.456;2023-03-09T01:29:39;99186.63;;;0.48;100.00
42111;BME280;27766;52.174;5.456;2023-03-09T01:32:06;99177.13;;;0.42;100.00
42111;BME280;27766;52.174;5.456;2023-03-09T01:34:33;99191.88;;;0.53;100.00
42111;BME280;27766;52.174;5.456;2023-03-09T01:37:00;99186.72;;;0.51;100.00
42111;BME280;27766;52.174;5.456;2023-03-09T01:39:27;99190.91;;;0.49;100.00
42111;BME280;27766;52.174;5.456;2023-03-09T01:41:54;99191.47;;;0.40;100.00
42111;BME280;27766;52.174;5.456;2023-03-09T01:44:21;99196.75;;;0.46;100.00
42111;BME280;27766;52.174;5.456;2023-03-09T01:46:51;99203.41;;;0.43;100.00
42111;BME280;27766;52.174;5.456;2023-03-09T01:52:18;99200.88;;;0.43;100.00
42111;BME280;27766;52.174;5.456;2023-03-09T01:55:05;99206.94;;;0.46;100.00
42111;BME280;27766;52.174;5.456;2023-03-09T01:57:40;99217.88;;;0.44;100.00
42111;BME280;27766;52.174;5.456;2023-03-09T02:00:12;99219.66;;;0.46;100.00
42111;BME280;27766;52.174;5.456;2023-03-09T02:02:42;99216.25;;;0.46;100.00
42111;BME280;27766;52.174;5.456;2023-03-09T02:05:20;99215.53;;;0.50;100.00
42111;BME280;27766;52.174;5.456;2023-03-09T02:07:49;99219.81;;;0.51;100.00
42111;BME280;27766;52.174;5.456;2023-03-09T02:10:30;99221.47;;;0.49;100.00
42111;BME280;27766;52.174;5.456;2023-03-09T02:13:03;99233.31;;;0.49;100.00
42111;BME280;27766;52.174;5.456;2023-03-09T02:15:30;99233.47;;;0.53;100.00
42111;BME280;27766;52.174;5.456;2023-03-09T02:17:58;99222.97;;;0.44;100.00
42111;BME280;27766;52.174;5.456;2023-03-09T02:22:54;99235.72;;;0.44;100.00
42111;BME280;27766;52.174;5.456;2023-03-09T02:25:54;99249.19;;;0.41;100.00
42111;BME280;27766;52.174;5.456;2023-03-09T02:28:23;99244.88;;;0.39;100.00
42111;BME280;27766;52.174;5.456;2023-03-09T02:30:50;99243.31;;;0.42;100.00
42111;BME280;27766;52.174;5.456;2023-03-09T02:33:27;99255.22;;;0.43;100.00
42111;BME280;27766;52.174;5.456;2023-03-09T02:35:56;99261.88;;;0.40;100.00
42111;BME280;27766;52.174;5.456;2023-03-09T02:38:24;99249.97;;;0.39;100.00
42111;BME280;27766;52.174;5.456;2023-03-09T02:40:54;99256.06;;;0.44;100.00
42111;BME280;27766;52.174;5.456;2023-03-09T02:43:28;99246.81;;;0.46;100.00
42111;BME280;27766;52.174;5.456;2023-03-09T02:45:57;99245.28;;;0.51;100.00
42111;BME280;27766;52.174;5.456;2023-03-09T02:48:24;99232.00;;;0.34;100.00
42111;BME280;27766;52.174;5.456;2023-03-09T02:50:51;99256.22;;;0.49;100.00
42111;BME280;27766;52.174;5.456;2023-03-09T02:53:19;99256.06;;;0.44;100.00
42111;BME280;27766;52.174;5.456;2023-03-09T02:55:46;99261.94;;;0.41;100.00
42111;BME280;27766;52.174;5.456;2023-03-09T02:58:13;99254.41;;;0.44;100.00
42111;BME280;27766;52.174;5.456;2023-03-09T03:00:40;99248.41;;;0.42;100.00
42111;BME280;27766;52.174;5.456;2023-03-09T03:03:07;99247.59;;;0.43;100.00
42111;BME280;27766;52.174;5.456;2023-03-09T03:05:35;99251.75;;;0.41;100.00
42111;BME280;27766;52.174;5.456;2023-03-09T03:08:02;99268.59;;;0.38;100.00
42111;BME280;27766;52.174;5.456;2023-03-09T03:10:29;99269.53;;;0.40;100.00
42111;BME280;27766;52.174;5.456;2023-03-09T03:12:56;99269.47;;;0.38;100.00
42111;BME280;27766;52.174;5.456;2023-03-09T03:15:23;99267.03;;;0.41;100.00
42111;BME280;27766;52.174;5.456;2023-03-09T03:17:50;99279.06;;;0.45;100.00
42111;BME280;27766;52.174;5.456;2023-03-09T03:20:17;99289.25;;;0.45;100.00
42111;BME280;27766;52.174;5.456;2023-03-09T03:22:45;99282.47;;;0.46;100.00
42111;BME280;27766;52.174;5.456;2023-03-09T03:25:12;99288.47;;;0.48;100.00
42111;BME280;27766;52.174;5.456;2023-03-09T03:27:40;99283.19;;;0.42;100.00
42111;BME280;27766;52.174;5.456;2023-03-09T03:30:08;99287.22;;;0.37;100.00
42111;BME280;27766;52.174;5.456;2023-03-09T03:32:36;99289.94;;;0.41;100.00
42111;BME280;27766;52.174;5.456;2023-03-09T03:35:03;99287.44;;;0.43;100.00
42111;BME280;27766;52.174;5.456;2023-03-09T03:37:30;99291.72;;;0.44;100.00
42111;BME280;27766;52.174;5.456;2023-03-09T03:39:57;99300.25;;;0.44;100.00
42111;BME280;27766;52.174;5.456;2023-03-09T03:42:25;99296.81;;;0.44;100.00
42111;BME280;27766;52.174;5.456;2023-03-09T03:44:53;99308.78;;;0.46;100.00
42111;BME280;27766;52.174;5.456;2023-03-09T03:47:20;99318.94;;;0.46;100.00
42111;BME280;27766;52.174;5.456;2023-03-09T03:49:47;99324.81;;;0.44;100.00
42111;BME280;27766;52.174;5.456;2023-03-09T03:52:14;99317.28;;;0.47;100.00
42111;BME280;27766;52.174;5.456;2023-03-09T03:54:41;99314.63;;;0.44;100.00
42111;BME280;27766;52.174;5.456;2023-03-09T03:57:09;99329.09;;;0.45;100.00
42111;BME280;27766;52.174;5.456;2023-03-09T03:59:36;99335.00;;;0.44;100.00
42111;BME280;27766;52.174;5.456;2023-03-09T04:02:03;99337.50;;;0.42;100.00
42111;BME280;27766;52.174;5.456;2023-03-09T04:04:30;99331.44;;;0.39;100.00
42111;BME280;27766;52.174;5.456;2023-03-09T04:06:57;99331.44;;;0.39;100.00
42111;BME280;27766;52.174;5.456;2023-03-09T04:09:24;99331.47;;;0.40;100.00
42111;BME280;27766;52.174;5.456;2023-03-09T04:11:51;99343.44;;;0.43;100.00
42111;BME280;27766;52.174;5.456;2023-03-09T04:14:18;99343.41;;;0.41;100.00
42111;BME280;27766;52.174;5.456;2023-03-09T04:16:46;99346.69;;;0.39;100.00
42111;BME280;27766;52.174;5.456;2023-03-09T04:19:13;99357.66;;;0.36;100.00
42111;BME280;27766;52.174;5.456;2023-03-09T04:21:40;99372.16;;;0.39;100.00
42111;BME280;27766;52.174;5.456;2023-03-09T04:24:07;99384.09;;;0.40;100.00
42111;BME280;27766;52.174;5.456;2023-03-09T04:26:34;99389.34;;;0.44;100.00
42111;BME280;27766;52.174;5.456;2023-03-09T04:29:01;99387.56;;;0.42;100.00
42111;BME280;27766;52.174;5.456;2023-03-09T04:31:28;99395.25;;;0.43;100.00
42111;BME280;27766;52.174;5.456;2023-03-09T04:33:55;99414.63;;;0.40;100.00
42111;BME280;27766;52.174;5.456;2023-03-09T04:36:23;99404.44;;;0.40;100.00
42111;BME280;27766;52.174;5.456;2023-03-09T04:38:50;99392.41;;;0.36;100.00
42111;BME280;27766;52.174;5.456;2023-03-09T04:41:17;99401.94;;;0.41;100.00
42111;BME280;27766;52.174;5.456;2023-03-09T04:43:44;99407.09;;;0.43;100.00
42111;BME280;27766;52.174;5.456;2023-03-09T04:46:11;99417.25;;;0.43;100.00
42111;BME280;27766;52.174;5.456;2023-03-09T04:48:41;99408.91;;;0.45;100.00
42111;BME280;27766;52.174;5.456;2023-03-09T04:51:08;99414.97;;;0.49;100.00
42111;BME280;27766;52.174;5.456;2023-03-09T04:53:35;99407.38;;;0.51;100.00
42111;BME280;27766;52.174;5.456;2023-03-09T04:56:02;99421.88;;;0.53;100.00
42111;BME280;27766;52.174;5.456;2023-03-09T04:58:30;99414.38;;;0.56;100.00
42111;BME280;27766;52.174;5.456;2023-03-09T05:00:57;99422.81;;;0.55;100.00
42111;BME280;27766;52.174;5.456;2023-03-09T05:03:24;99419.22;;;0.50;100.00
42111;BME280;27766;52.174;5.456;2023-03-09T05:05:52;99432.19;;;0.56;100.00
42111;BME280;27766;52.174;5.456;2023-03-09T05:08:19;99432.38;;;0.61;100.00
42111;BME280;27766;52.174;5.456;2023-03-09T05:10:46;99417.00;;;0.59;100.00
42111;BME280;27766;52.174;5.456;2023-03-09T05:13:13;99411.16;;;0.62;100.00
42111;BME280;27766;52.174;5.456;2023-03-09T05:15:41;99410.28;;;0.61;100.00
42111;BME280;27766;52.174;5.456;2023-03-09T05:18:08;99416.16;;;0.59;100.00
42111;BME280;27766;52.174;5.456;2023-03-09T05:20:37;99416.03;;;0.56;100.00
42111;BME280;27766;52.174;5.456;2023-03-09T05:23:05;99436.56;;;0.60;100.00
42111;BME280;27766;52.174;5.456;2023-03-09T05:25:32;99435.56;;;0.55;100.00
42111;BME280;27766;52.174;5.456;2023-03-09T05:27:59;99439.88;;;0.58;100.00
42111;BME280;27766;52.174;5.456;2023-03-09T05:30:28;99441.56;;;0.57;100.00
42111;BME280;27766;52.174;5.456;2023-03-09T05:32:57;99430.53;;;0.58;100.00
42111;BME280;27766;52.174;5.456;2023-03-09T05:35:24;99444.13;;;0.57;100.00
42111;BME280;27766;52.174;5.456;2023-03-09T05:37:51;99453.53;;;0.60;100.00
42111;BME280;27766;52.174;5.456;2023-03-09T05:40:18;99440.81;;;0.60;100.00
42111;BME280;27766;52.174;5.456;2023-03-09T05:42:49;99445.91;;;0.60;100.00
42111;BME280;27766;52.174;5.456;2023-03-09T05:45:16;99429.81;;;0.61;100.00
42111;BME280;27766;52.174;5.456;2023-03-09T05:47:43;99427.41;;;0.66;100.00
42111;BME280;27766;52.174;5.456;2023-03-09T05:50:10;99437.53;;;0.64;100.00
42111;BME280;27766;52.174;5.456;2023-03-09T05:52:37;99436.56;;;0.60;100.00
42111;BME280;27766;52.174;5.456;2023-03-09T05:55:05;99445.13;;;0.62;100.00
42111;BME280;27766;52.174;5.456;2023-03-09T05:57:32;99450.22;;;0.62;100.00
42111;BME280;27766;52.174;5.456;2023-03-09T05:59:59;99464.72;;;0.63;100.00
42111;BME280;27766;52.174;5.456;2023-03-09T06:02:27;99465.50;;;0.62;100.00
42111;BME280;27766;52.174;5.456;2023-03-09T06:04:54;99472.28;;;0.62;100.00
42111;BME280;27766;52.174;5.456;2023-03-09T06:07:22;99480.84;;;0.64;100.00
42111;BME280;27766;52.174;5.456;2023-03-09T06:09:49;99475.31;;;0.52;100.00
42111;BME280;27766;52.174;5.456;2023-03-09T06:12:17;99482.25;;;0.56;100.00
42111;BME280;27766;52.174;5.456;2023-03-09T06:14:47;99483.16;;;0.58;100.00
42111;BME280;27766;52.174;5.456;2023-03-09T06:17:15;99485.53;;;0.53;100.00
42111;BME280;27766;52.174;5.456;2023-03-09T06:19:43;99474.25;;;0.46;100.00
42111;BME280;27766;52.174;5.456;2023-03-09T06:22:10;99491.63;;;0.57;100.00
42111;BME280;27766;52.174;5.456;2023-03-09T06:24:37;99493.41;;;0.59;100.00
42111;BME280;27766;52.174;5.456;2023-03-09T06:27:04;99486.66;;;0.60;100.00
42111;BME280;27766;52.174;5.456;2023-03-09T06:29:31;99491.03;;;0.64;100.00
42111;BME280;27766;52.174;5.456;2023-03-09T06:31:58;99490.34;;;0.68;100.00
42111;BME280;27766;52.174;5.456;2023-03-09T06:34:28;99498.03;;;0.70;100.00
42111;BME280;27766;52.174;5.456;2023-03-09T06:36:56;99499.69;;;0.69;100.00
42111;BME280;27766;52.174;5.456;2023-03-09T06:39:23;99503.94;;;0.69;100.00
42111;BME280;27766;52.174;5.456;2023-03-09T06:41:50;99520.25;;;0.74;100.00
42111;BME280;27766;52.174;5.456;2023-03-09T06:44:17;99519.44;;;0.75;100.00
42111;BME280;27766;52.174;5.456;2023-03-09T06:46:44;99530.59;;;0.78;100.00
42111;BME280;27766;52.174;5.456;2023-03-09T06:49:11;99519.38;;;0.73;100.00
42111;BME280;27766;52.174;5.456;2023-03-09T06:51:38;99543.50;;;0.83;100.00
42111;BME280;27766;52.174;5.456;2023-03-09T06:54:06;99552.88;;;0.84;100.00
42111;BME280;27766;52.174;5.456;2023-03-09T06:56:33;99551.28;;;0.86;100.00
42111;BME280;27766;52.174;5.456;2023-03-09T06:59:00;99552.94;;;0.86;100.00
42111;BME280;27766;52.174;5.456;2023-03-09T07:01:27;99557.28;;;0.88;100.00
42111;BME280;27766;52.174;5.456;2023-03-09T07:03:54;99556.16;;;0.80;100.00
42111;BME280;27766;52.174;5.456;2023-03-09T07:06:22;99566.47;;;0.85;100.00
42111;BME280;27766;52.174;5.456;2023-03-09T07:08:49;99577.44;;;0.82;100.00
42111;BME280;27766;52.174;5.456;2023-03-09T07:11:16;99589.28;;;0.80;100.00
42111;BME280;27766;52.174;5.456;2023-03-09T07:13:43;99596.06;;;0.81;100.00
42111;BME280;27766;52.174;5.456;2023-03-09T07:16:10;99599.56;;;0.83;100.00
42111;BME280;27766;52.174;5.456;2023-03-09T07:18:37;99607.31;;;0.86;100.00
42111;BME280;27766;52.174;5.456;2023-03-09T07:21:04;99609.13;;;0.89;100.00
42111;BME280;27766;52.174;5.456;2023-03-09T07:23:32;99617.91;;;0.97;100.00
42111;BME280;27766;52.174;5.456;2023-03-09T07:26:03;99609.47;;;0.98;100.00
42111;BME280;27766;52.174;5.456;2023-03-09T07:28:31;99617.16;;;1.00;100.00
42111;BME280;27766;52.174;5.456;2023-03-09T07:31:06;99604.25;;;0.95;100.00
42111;BME280;27766;52.174;5.456;2023-03-09T07:33:33;99614.78;;;1.04;100.00
42111;BME280;27766;52.174;5.456;2023-03-09T07:36:06;99626.81;;;1.08;100.00
42111;BME280;27766;52.174;5.456;2023-03-09T07:38:33;99614.81;;;1.06;100.00
42111;BME280;27766;52.174;5.456;2023-03-09T07:41:01;99618.94;;;1.02;100.00
42111;BME280;27766;52.174;5.456;2023-03-09T07:43:29;99621.53;;;1.04;100.00
42111;BME280;27766;52.174;5.456;2023-03-09T07:45:56;99622.38;;;1.03;100.00
42111;BME280;27766;52.174;5.456;2023-03-09T07:48:23;99631.97;;;1.10;100.00
42111;BME280;27766;52.174;5.456;2023-03-09T07:50:58;99639.69;;;1.12;100.00
42111;BME280;27766;52.174;5.456;2023-03-09T07:53:26;99643.09;;;1.12;100.00
42111;BME280;27766;52.174;5.456;2023-03-09T07:55:56;99650.03;;;1.16;100.00
42111;BME280;27766;52.174;5.456;2023-03-09T07:58:25;99648.44;;;1.18;100.00
42111;BME280;27766;52.174;5.456;2023-03-09T08:00:53;99652.09;;;1.26;100.00
42111;BME280;27766;52.174;5.456;2023-03-09T08:03:20;99649.53;;;1.26;100.00
42111;BME280;27766;52.174;5.456;2023-03-09T08:05:47;99645.38;;;1.29;100.00
42111;BME280;27766;52.174;5.456;2023-03-09T08:08:15;99649.72;;;1.31;100.00
42111;BME280;27766;52.174;5.456;2023-03-09T08:10:49;99645.34;;;1.27;100.00
42111;BME280;27766;52.174;5.456;2023-03-09T08:13:17;99652.22;;;1.30;100.00
42111;BME280;27766;52.174;5.456;2023-03-09T08:15:44;99653.13;;;1.30;100.00
42111;BME280;27766;52.174;5.456;2023-03-09T08:18:11;99662.41;;;1.30;100.00
42111;BME280;27766;52.174;5.456;2023-03-09T08:20:39;99653.97;;;1.31;100.00
42111;BME280;27766;52.174;5.456;2023-03-09T08:23:06;99668.66;;;1.38;100.00
42111;BME280;27766;52.174;5.456;2023-03-09T08:25:34;99681.63;;;1.44;100.00
42111;BME280;27766;52.174;5.456;2023-03-09T08:28:02;99681.84;;;1.50;100.00
42111;BME280;27766;52.174;5.456;2023-03-09T08:30:30;99682.84;;;1.54;100.00
42111;BME280;27766;52.174;5.456;2023-03-09T08:32:58;99686.28;;;1.54;100.00
42111;BME280;27766;52.174;5.456;2023-03-09T08:35:28;99679.91;;;1.43;100.00
42111;BME280;27766;52.174;5.456;2023-03-09T08:37:58;99683.72;;;1.54;100.00
42111;BME280;27766;52.174;5.456;2023-03-09T08:40:25;99681.38;;;1.61;100.00
42111;BME280;27766;52.174;5.456;2023-03-09T08:42:52;99693.31;;;1.62;100.00
42111;BME280;27766;52.174;5.456;2023-03-09T08:45:19;99712.22;;;1.67;100.00
42111;BME280;27766;52.174;5.456;2023-03-09T08:47:46;99710.38;;;1.63;100.00
42111;BME280;27766;52.174;5.456;2023-03-09T08:50:14;99732.03;;;1.74;100.00
42111;BME280;27766;52.174;5.456;2023-03-09T08:52:41;99722.91;;;1.81;100.00
42111;BME280;27766;52.174;5.456;2023-03-09T08:55:09;99724.69;;;1.83;100.00
42111;BME280;27766;52.174;5.456;2023-03-09T08:57:38;99719.75;;;1.88;100.00
42111;BME280;27766;52.174;5.456;2023-03-09T09:00:06;99727.25;;;1.83;100.00
42111;BME280;27766;52.174;5.456;2023-03-09T09:02:36;99735.13;;;1.89;100.00
42111;BME280;27766;52.174;5.456;2023-03-09T09:05:04;99724.91;;;1.89;100.00
42111;BME280;27766;52.174;5.456;2023-03-09T09:07:31;99714.66;;;1.88;100.00
42111;BME280;27766;52.174;5.456;2023-03-09T09:09:58;99720.69;;;1.90;100.00
42111;BME280;27766;52.174;5.456;2023-03-09T09:12:26;99711.47;;;1.94;100.00
42111;BME280;27766;52.174;5.456;2023-03-09T09:14:54;99718.44;;;1.99;100.00
42111;BME280;27766;52.174;5.456;2023-03-09T09:17:22;99730.31;;;1.97;100.00
42111;BME280;27766;52.174;5.456;2023-03-09T09:19:49;99734.84;;;2.06;100.00
42111;BME280;27766;52.174;5.456;2023-03-09T09:22:18;99732.41;;;2.09;100.00
42111;BME280;27766;52.174;5.456;2023-03-09T09:24:45;99747.78;;;2.11;100.00
42111;BME280;27766;52.174;5.456;2023-03-09T09:27:12;99765.53;;;2.08;100.00
42111;BME280;27766;52.174;5.456;2023-03-09T09:29:39;99771.41;;;2.05;100.00
42111;BME280;27766;52.174;5.456;2023-03-09T09:32:07;99771.31;;;2.02;100.00
42111;BME280;27766;52.174;5.456;2023-03-09T09:34:35;99767.81;;;2.00;100.00
42111;BME280;27766;52.174;5.456;2023-03-09T09:37:04;99765.44;;;2.04;100.00
42111;BME280;27766;52.174;5.456;2023-03-09T09:39:32;99762.06;;;2.05;100.00
42111;BME280;27766;52.174;5.456;2023-03-09T09:42:23;99765.69;;;2.12;100.00
42111;BME280;27766;52.174;5.456;2023-03-09T09:44:52;99753.66;;;2.08;100.00
42111;BME280;27766;52.174;5.456;2023-03-09T09:47:23;99750.28;;;2.09;100.00
42111;BME280;27766;52.174;5.456;2023-03-09T09:49:54;99763.28;;;2.17;100.00
42111;BME280;27766;52.174;5.456;2023-03-09T09:53:04;99752.31;;;2.19;100.00
42111;BME280;27766;52.174;5.456;2023-03-09T09:55:37;99751.56;;;2.22;100.00
42111;BME280;27766;52.174;5.456;2023-03-09T10:00:40;99761.78;;;2.22;100.00
42111;BME280;27766;52.174;5.456;2023-03-09T10:05:41;99775.66;;;2.30;100.00
42111;BME280;27766;52.174;5.456;2023-03-09T10:08:28;99780.84;;;2.32;100.00
42111;BME280;27766;52.174;5.456;2023-03-09T10:11:15;99765.78;;;2.40;100.00
42111;BME280;27766;52.174;5.456;2023-03-09T10:16:25;99781.28;;;2.46;100.00
42111;BME280;27766;52.174;5.456;2023-03-09T10:19:00;99767.72;;;2.47;100.00
42111;BME280;27766;52.174;5.456;2023-03-09T10:21:34;99774.53;;;2.46;100.00
42111;BME280;27766;52.174;5.456;2023-03-09T10:24:25;99764.31;;;2.46;100.00
42111;BME280;27766;52.174;5.456;2023-03-09T10:35:31;99771.19;;;2.49;100.00
42111;BME280;27766;52.174;5.456;2023-03-09T10:37:59;99777.78;;;2.42;100.00
42111;BME280;27766;52.174;5.456;2023-03-09T10:40:31;99782.06;;;2.43;100.00
42111;BME280;27766;52.174;5.456;2023-03-09T10:43:01;99783.19;;;2.51;100.00
42111;BME280;27766;52.174;5.456;2023-03-09T10:45:32;99784.28;;;2.58;100.00
42111;BME280;27766;52.174;5.456;2023-03-09T10:48:06;99782.53;;;2.57;100.00
42111;BME280;27766;52.174;5.456;2023-03-09T10:50:38;99791.28;;;2.64;100.00
42111;BME280;27766;52.174;5.456;2023-03-09T10:55:54;99768.06;;;2.83;100.00
42111;BME280;27766;52.174;5.456;2023-03-09T10:58:33;99784.25;;;2.84;100.00
42111;BME280;27766;52.174;5.456;2023-03-09T11:01:03;99776.69;;;2.87;100.00
42111;BME280;27766;52.174;5.456;2023-03-09T11:03:36;99773.16;;;2.83;100.00
42111;BME280;27766;52.174;5.456;2023-03-09T11:08:44;99759.28;;;2.75;100.00
42111;BME280;27766;52.174;5.456;2023-03-09T11:11:40;99770.81;;;2.90;100.00
42111;BME280;27766;52.174;5.456;2023-03-09T11:14:26;99766.81;;;2.98;100.00
42111;BME280;27766;52.174;5.456;2023-03-09T11:16:58;99757.50;;;3.00;100.00
42111;BME280;27766;52.174;5.456;2023-03-09T11:19:28;99764.41;;;3.03;100.00
42111;BME280;27766;52.174;5.456;2023-03-09T11:24:46;99779.06;;;3.08;100.00
42111;BME280;27766;52.174;5.456;2023-03-09T11:27:23;99786.81;;;3.11;100.00
42111;BME280;27766;52.174;5.456;2023-03-09T11:30:05;99784.38;;;3.14;100.00
42111;BME280;27766;52.174;5.456;2023-03-09T11:32:34;99788.81;;;3.20;100.00
42111;BME280;27766;52.174;5.456;2023-03-09T11:35:01;99793.16;;;3.23;100.00
42111;BME280;27766;52.174;5.456;2023-03-09T11:37:50;99789.59;;;3.17;100.00
42111;BME280;27766;52.174;5.456;2023-03-09T11:40:21;99798.09;;;3.16;100.00
42111;BME280;27766;52.174;5.456;2023-03-09T11:42:53;99793.63;;;3.11;100.00
42111;BME280;27766;52.174;5.456;2023-03-09T11:45:27;99789.19;;;3.05;100.00
42111;BME280;27766;52.174;5.456;2023-03-09T11:48:04;99789.78;;;2.96;100.00
42111;BME280;27766;52.174;5.456;2023-03-09T11:50:39;99791.59;;;3.00;100.00
42111;BME280;27766;52.174;5.456;2023-03-09T11:53:18;99792.63;;;3.06;100.00
42111;BME280;27766;52.174;5.456;2023-03-09T11:55:53;99787.53;;;3.06;100.00
42111;BME280;27766;52.174;5.456;2023-03-09T11:58:35;99787.38;;;3.01;100.00
42111;BME280;27766;52.174;5.456;2023-03-09T12:01:10;99778.94;;;3.04;100.00
42111;BME280;27766;52.174;5.456;2023-03-09T12:03:47;99771.09;;;2.99;100.00
42111;BME280;27766;52.174;5.456;2023-03-09T12:09:09;99758.63;;;3.08;100.00
42111;BME280;27766;52.174;5.456;2023-03-09T12:11:42;99763.06;;;3.14;100.00
42111;BME280;27766;52.174;5.456;2023-03-09T12:14:16;99769.03;;;3.14;100.00
42111;BME280;27766;52.174;5.456;2023-03-09T12:16:50;99756.22;;;3.13;100.00
42111;BME280;27766;52.174;5.456;2023-03-09T12:19:21;99757.06;;;3.13;100.00
42111;BME280;27766;52.174;5.456;2023-03-09T12:29:43;99749.72;;;3.24;100.00
42111;BME280;27766;52.174;5.456;2023-03-09T12:34:48;99743.78;;;3.25;100.00
42111;BME280;27766;52.174;5.456;2023-03-09T12:42:45;99747.97;;;3.23;100.00
42111;BME280;27766;52.174;5.456;2023-03-09T12:53:28;99736.38;;;3.06;100.00
42111;BME280;27766;52.174;5.456;2023-03-09T12:56:09;99733.72;;;3.03;100.00
42111;BME280;27766;52.174;5.456;2023-03-09T12:58:42;99729.19;;;2.94;100.00
42111;BME280;27766;52.174;5.456;2023-03-09T13:03:49;99713.56;;;2.84;100.00
42111;BME280;27766;52.174;5.456;2023-03-09T13:06:31;99727.28;;;2.87;100.00
42111;BME280;27766;52.174;5.456;2023-03-09T13:11:36;99706.03;;;2.62;100.00
42111;BME280;27766;52.174;5.456;2023-03-09T13:15:02;99713.75;;;2.63;100.00
42111;BME280;27766;52.174;5.456;2023-03-09T13:23:07;99693.91;;;2.55;100.00
42111;BME280;27766;52.174;5.456;2023-03-09T13:25:42;99681.63;;;2.44;100.00
42111;BME280;27766;52.174;5.456;2023-03-09T13:28:14;99673.94;;;2.43;100.00
42111;BME280;27766;52.174;5.456;2023-03-09T13:30:43;99663.69;;;2.41;100.00
42111;BME280;27766;52.174;5.456;2023-03-09T13:33:18;99660.16;;;2.37;100.00
42111;BME280;27766;52.174;5.456;2023-03-09T13:35:54;99656.72;;;2.37;100.00
42111;BME280;27766;52.174;5.456;2023-03-09T13:38:30;99651.41;;;2.31;100.00
42111;BME280;27766;52.174;5.456;2023-03-09T13:41:00;99656.25;;;2.23;100.00
42111;BME280;27766;52.174;5.456;2023-03-09T13:43:31;99672.34;;;2.20;100.00
42111;BME280;27766;52.174;5.456;2023-03-09T13:46:09;99678.00;;;2.10;100.00
42111;BME280;27766;52.174;5.456;2023-03-09T13:48:45;99701.09;;;2.15;100.00
42111;BME280;27766;52.174;5.456;2023-03-09T13:51:23;99702.91;;;2.17;100.00
42111;BME280;27766;52.174;5.456;2023-03-09T13:53:51;99697.72;;;2.16;100.00
42111;BME280;27766;52.174;5.456;2023-03-09T13:56:19;99703.81;;;2.19;100.00
42111;BME280;27766;52.174;5.456;2023-03-09T13:58:46;99704.50;;;2.14;100.00
42111;BME280;27766;52.174;5.456;2023-03-09T14:01:25;99707.91;;;2.14;100.00
42111;BME280;27766;52.174;5.456;2023-03-09T14:03:58;99704.50;;;2.14;100.00
42111;BME280;27766;52.174;5.456;2023-03-09T14:06:31;99685.56;;;2.09;100.00
42111;BME280;27766;52.174;5.456;2023-03-09T14:09:32;99684.72;;;2.08;100.00
42111;BME280;27766;52.174;5.456;2023-03-09T14:12:01;99679.34;;;2.00;100.00
42111;BME280;27766;52.174;5.456;2023-03-09T14:14:28;99681.72;;;1.96;100.00
42111;BME280;27766;52.174;5.456;2023-03-09T14:16:56;99687.59;;;1.93;100.00
42111;BME280;27766;52.174;5.456;2023-03-09T14:19:28;99689.91;;;1.85;100.00
42111;BME280;27766;52.174;5.456;2023-03-09T14:21:56;99670.78;;;1.74;100.00